Time;durP1;ratioP1;P1;durP2;ratioP2;P2;SDS_P1;SDS_P2;PMS_P1;PMS_P2;Temp;Humidity;BMP_temperature;BMP_pressure;BME280_temperature;BME280_humidity;BME280_pressure;Samples;Min_cycle;Max_cycle;Signal;HPM_P1;HPM_P2
2021/04/22 12:26:30;;;;;;;0.35;0.35;;;14.50;57.80;;;;;;5150507;27;20138;-73
2021/04/22 12:29:01;;;;;;;0.68;0.50;;;14.00;58.70;;;;;;5094918;28;20040;-73
2021/04/22 12:31:35;;;;;;;0.55;0.50;;;14.10;60.00;;;;;;5076442;28;20075;-74
2021/04/22 12:34:20;;;;;;;3.13;0.70;;;14.20;61.00;;;;;;5111538;28;20043;-74
2021/04/22 12:36:59;;;;;;;2.33;0.60;;;14.40;61.60;;;;;;5111338;28;20035;-72
2021/04/22 12:39:30;;;;;;;0.85;0.50;;;14.50;62.00;;;;;;5130148;28;20043;-74
2021/04/22 12:42:07;;;;;;;0.57;0.55;;;14.60;62.20;;;;;;5111484;28;20129;-73
2021/04/22 12:44:38;;;;;;;1.55;0.60;;;14.70;62.40;;;;;;5109901;28;20093;-74
2021/04/22 12:47:07;;;;;;;2.55;0.77;;;14.70;62.30;;;;;;5129147;28;20039;-74
2021/04/22 12:49:33;;;;;;;1.00;0.73;;;14.60;62.40;;;;;;5094112;28;20043;-75
2021/04/22 12:52:01;;;;;;;0.77;0.50;;;14.50;62.70;;;;;;5094225;28;20035;-74
2021/04/22 12:54:27;;;;;;;0.57;0.57;;;14.60;62.90;;;;;;5129571;28;20062;-75
2021/04/22 12:56:54;;;;;;;1.10;0.60;;;14.50;62.40;;;;;;5130091;28;20044;-75
2021/04/22 12:59:22;;;;;;;1.40;0.50;;;14.30;63.00;;;;;;5129621;28;20055;-75
2021/04/22 13:01:49;;;;;;;1.58;0.70;;;14.20;63.30;;;;;;5094939;28;20130;-74
2021/04/22 13:04:16;;;;;;;1.48;0.63;;;14.20;63.20;;;;;;5130067;28;20054;-75
2021/04/22 13:06:44;;;;;;;0.85;0.60;;;14.20;63.20;;;;;;5111570;28;20035;-73
2021/04/22 13:09:11;;;;;;;0.93;0.60;;;14.30;63.00;;;;;;5129460;28;20046;-73
2021/04/22 13:11:39;;;;;;;1.75;0.55;;;14.50;62.50;;;;;;5111607;28;20118;-75
2021/04/22 13:14:08;;;;;;;0.98;0.60;;;14.60;62.00;;;;;;5094204;28;20036;-74
2021/04/22 13:16:51;;;;;;;0.75;0.50;;;14.50;61.70;;;;;;5129885;28;20044;-74
2021/04/22 13:19:19;;;;;;;1.15;0.50;;;14.50;61.90;;;;;;5093915;28;20481;-74
2021/04/22 13:21:54;;;;;;;1.30;0.57;;;14.50;62.10;;;;;;5129541;28;20043;-71
2021/04/22 13:24:23;;;;;;;1.27;0.50;;;14.50;61.70;;;;;;5128991;28;20496;-72
2021/04/22 13:26:55;;;;;;;0.73;0.50;;;14.30;61.80;;;;;;5111222;28;20089;-74
2021/04/22 13:29:26;;;;;;;2.63;0.80;;;14.30;61.90;;;;;;5129664;28;20028;-72
2021/04/22 13:32:04;;;;;;;3.03;0.60;;;14.30;61.70;;;;;;5129279;28;20036;-72
2021/04/22 13:34:40;;;;;;;1.00;0.60;;;14.40;61.50;;;;;;5129212;28;20038;-72
2021/04/22 13:37:07;;;;;;;1.60;0.65;;;14.30;61.40;;;;;;5118970;28;20039;-74
2021/04/22 13:39:36;;;;;;;1.23;0.50;;;14.20;61.30;;;;;;5096853;28;20101;-73
2021/04/22 13:42:03;;;;;;;0.70;0.52;;;14.00;61.70;;;;;;5115190;28;20039;-73
2021/04/22 13:44:35;;;;;;;0.65;0.50;;;13.90;61.80;;;;;;5096577;28;20525;-73
2021/04/22 13:47:05;;;;;;;1.48;0.77;;;13.80;61.70;;;;;;5096746;28;20039;-73
2021/04/22 13:49:35;;;;;;;2.03;0.45;;;13.70;61.50;;;;;;5115037;28;20070;-73
2021/04/22 13:52:06;;;;;;;2.00;0.82;;;13.70;61.40;;;;;;5080143;28;20173;-73
2021/04/22 13:54:33;;;;;;;;;;;13.60;61.20;;;;;;5115973;28;20126;-74
2021/04/22 13:57:17;;;;;;;1.42;0.82;;;13.60;61.40;;;;;;5115024;28;19911;-73
2021/04/22 13:59:45;;;;;;;1.35;0.57;;;13.50;60.90;;;;;;5115315;28;20121;-73
2021/04/22 14:02:14;;;;;;;1.92;0.75;;;13.50;61.60;;;;;;5115469;28;20561;-76
2021/04/22 14:04:44;;;;;;;1.65;0.60;;;13.50;60.90;;;;;;5097138;28;20104;-74
2021/04/22 14:07:11;;;;;;;1.15;0.60;;;13.50;60.90;;;;;;5115464;28;20419;-73
2021/04/22 14:09:37;;;;;;;1.48;0.50;;;13.50;60.60;;;;;;5079722;28;20040;-72
2021/04/22 14:12:09;;;;;;;1.48;0.70;;;13.60;60.50;;;;;;5114929;28;20059;-72
2021/04/22 14:14:37;;;;;;;0.50;0.40;;;13.60;60.20;;;;;;5061695;28;20477;-73
2021/04/22 14:17:03;;;;;;;1.77;0.73;;;13.60;60.10;;;;;;5096796;28;20047;-73
2021/04/22 14:19:32;;;;;;;1.85;0.65;;;13.70;59.90;;;;;;5114650;28;20100;-73
2021/04/22 14:22:01;;;;;;;0.75;0.50;;;13.60;59.80;;;;;;5114849;28;20093;-74
2021/04/22 14:24:28;;;;;;;1.58;0.55;;;13.50;59.90;;;;;;5114337;28;20035;-72
2021/04/22 14:26:56;;;;;;;1.25;0.60;;;13.60;59.90;;;;;;5079333;28;20127;-74
2021/04/22 14:29:25;;;;;;;0.30;0.30;;;13.60;59.70;;;;;;5096160;28;20442;-73
2021/04/22 14:31:54;;;;;;;1.15;0.47;;;13.70;59.50;;;;;;5096240;28;20035;-72
2021/04/22 14:34:22;;;;;;;0.47;0.47;;;13.70;59.10;;;;;;5096091;28;20088;-72
2021/04/22 14:36:49;;;;;;;0.90;0.50;;;13.70;59.20;;;;;;5095652;28;20524;-73
2021/04/22 14:39:16;;;;;;;1.35;0.70;;;13.60;59.20;;;;;;5095260;28;20401;-73
2021/04/22 14:41:43;;;;;;;1.35;0.45;;;13.60;59.30;;;;;;5114024;28;20036;-72
2021/04/22 14:44:11;;;;;;;0.43;0.30;;;13.80;59.30;;;;;;5096522;28;20397;-73
2021/04/22 14:46:37;;;;;;;2.00;0.50;;;14.00;58.90;;;;;;5114418;28;20039;-72
2021/04/22 14:49:04;;;;;;;0.82;0.50;;;14.10;58.50;;;;;;5094641;28;20044;-73
2021/04/22 14:51:31;;;;;;;1.08;0.50;;;14.20;58.10;;;;;;5114027;28;20039;-72
2021/04/22 14:53:57;;;;;;;0.40;0.40;;;14.20;58.20;;;;;;5114425;28;20028;-74
2021/04/22 14:56:24;;;;;;;1.63;0.70;;;14.40;58.00;;;;;;5095892;28;20407;-73
2021/04/22 14:58:50;;;;;;;1.05;0.60;;;14.40;57.60;;;;;;5113965;28;20059;-72
2021/04/22 15:01:16;;;;;;;1.73;0.60;;;14.30;57.50;;;;;;5113848;28;20038;-73
2021/04/22 15:03:42;;;;;;;1.23;0.60;;;14.40;57.30;;;;;;5095777;28;20493;-72
2021/04/22 15:06:08;;;;;;;1.73;0.88;;;14.60;57.30;;;;;;5095645;28;20393;-73
2021/04/22 15:08:34;;;;;;;0.98;0.50;;;14.40;57.70;;;;;;5114212;28;20439;-72
2021/04/22 15:11:04;;;;;;;1.52;0.80;;;14.50;57.20;;;;;;5096879;28;20035;-72
2021/04/22 15:13:35;;;;;;;0.65;0.50;;;14.50;57.00;;;;;;5062703;28;20040;-73
2021/04/22 15:16:10;;;;;;;1.30;0.80;;;14.50;57.00;;;;;;5114329;28;20047;-72
2021/04/22 15:18:40;;;;;;;1.05;0.68;;;14.40;56.90;;;;;;5063166;28;20047;-72
2021/04/22 15:21:06;;;;;;;2.67;0.90;;;14.30;57.10;;;;;;5017203;28;20156;-71
2021/04/22 15:23:35;;;;;;;1.20;0.70;;;14.30;57.00;;;;;;5017663;28;20040;-72
2021/04/22 15:26:03;;;;;;;1.67;0.68;;;14.30;56.80;;;;;;5050710;28;20090;-74
2021/04/22 15:28:31;;;;;;;0.90;0.65;;;14.50;56.50;;;;;;5017582;28;20041;-73
2021/04/22 15:31:02;;;;;;;0.80;0.60;;;14.40;56.40;;;;;;5051168;28;20512;-74
2021/04/22 15:33:28;;;;;;;0.80;0.45;;;14.30;56.30;;;;;;5017822;28;20045;-73
2021/04/22 15:35:57;;;;;;;0.90;0.50;;;14.40;56.30;;;;;;5017419;28;20215;-73
2021/04/22 15:38:24;;;;;;;1.45;0.45;;;14.40;56.20;;;;;;5033986;28;20107;-74
2021/04/22 15:40:50;;;;;;;2.10;0.60;;;14.30;56.00;;;;;;5033989;28;20564;-74
2021/04/22 15:43:17;;;;;;;0.75;0.40;;;14.30;55.90;;;;;;5050926;28;20499;-73
2021/04/22 15:45:52;;;;;;;0.40;0.40;;;14.40;55.90;;;;;;5034463;28;20045;-73
2021/04/22 15:48:21;;;;;;;0.73;0.45;;;14.30;55.70;;;;;;5050948;28;20128;-73
2021/04/22 15:50:48;;;;;;;2.58;0.73;;;14.30;55.70;;;;;;5033849;28;20564;-74
2021/04/22 15:53:14;;;;;;;1.05;0.50;;;14.40;55.20;;;;;;5112629;28;20039;-73
2021/04/22 15:55:41;;;;;;;1.77;0.75;;;14.30;55.20;;;;;;5077440;28;20075;-73
2021/04/22 15:58:07;;;;;;;1.38;0.60;;;14.30;55.50;;;;;;5077815;28;20048;-72
2021/04/22 16:00:39;;;;;;;1.50;0.60;;;14.40;55.60;;;;;;5112872;28;20075;-71
2021/04/22 16:03:06;;;;;;;0.85;0.40;;;14.70;54.70;;;;;;5076888;28;20152;-71
2021/04/22 16:05:33;;;;;;;1.77;0.50;;;14.70;54.60;;;;;;5112816;28;20040;-72
2021/04/22 16:08:00;;;;;;;1.67;0.60;;;14.40;54.50;;;;;;5095244;28;20039;-71
2021/04/22 16:10:26;;;;;;;0.73;0.60;;;14.60;54.70;;;;;;5113104;28;20108;-72
2021/04/22 16:12:53;;;;;;;1.23;0.60;;;14.80;54.60;;;;;;5094438;28;20031;-71
2021/04/22 16:15:19;;;;;;;1.85;0.50;;;14.90;54.10;;;;;;5113224;28;20092;-72
2021/04/22 16:17:46;;;;;;;1.02;0.40;;;15.00;53.80;;;;;;5112957;28;20035;-74
2021/04/22 16:20:13;;;;;;;0.95;0.38;;;14.90;53.90;;;;;;5076997;28;20043;-73
2021/04/22 16:22:40;;;;;;;0.80;0.40;;;14.60;54.10;;;;;;5093150;28;20044;-73
2021/04/22 16:25:08;;;;;;;2.42;0.57;;;14.60;54.40;;;;;;5113271;28;20126;-73
2021/04/22 16:27:35;;;;;;;0.47;0.40;;;14.50;54.40;;;;;;5092773;28;20046;-73
2021/04/22 16:30:04;;;;;;;0.50;0.50;;;14.50;54.60;;;;;;5113263;28;20038;-73
2021/04/22 16:32:30;;;;;;;1.13;0.45;;;14.40;54.70;;;;;;5113169;28;20101;-73
2021/04/22 16:34:56;;;;;;;0.90;0.40;;;14.40;54.70;;;;;;5094301;28;20048;-73
2021/04/22 16:37:24;;;;;;;0.30;0.30;;;14.60;54.40;;;;;;5112289;28;20044;-73
2021/04/22 16:39:51;;;;;;;0.50;0.32;;;14.60;54.40;;;;;;5077440;28;20537;-73
2021/04/22 16:42:17;;;;;;;0.85;0.40;;;14.60;54.10;;;;;;5094421;28;20079;-73
2021/04/22 16:44:43;;;;;;;1.13;0.40;;;14.50;54.20;;;;;;5094750;28;20097;-73
2021/04/22 16:47:11;;;;;;;0.50;0.50;;;14.30;54.20;;;;;;5094257;28;20046;-73
2021/04/22 16:49:37;;;;;;;1.38;0.43;;;14.10;54.40;;;;;;5112827;28;20035;-73
2021/04/22 16:52:04;;;;;;;0.70;0.30;;;13.90;55.00;;;;;;5093993;28;20043;-73
2021/04/22 16:54:30;;;;;;;1.35;0.30;;;13.70;55.50;;;;;;5093883;28;20401;-74
2021/04/22 16:56:56;;;;;;;0.30;0.25;;;13.60;55.80;;;;;;5112502;28;20032;-73
2021/04/22 16:59:23;;;;;;;1.00;0.30;;;13.50;55.90;;;;;;5094822;28;20051;-74
2021/04/22 17:01:49;;;;;;;1.58;0.52;;;13.50;55.90;;;;;;5112282;28;20521;-73
2021/04/22 17:04:16;;;;;;;0.30;0.20;;;13.40;55.90;;;;;;5112166;28;20464;-73
2021/04/22 17:06:44;;;;;;;1.23;0.30;;;13.30;56.10;;;;;;5112410;28;20036;-73
2021/04/22 17:09:11;;;;;;;1.95;0.50;;;13.20;56.10;;;;;;5112604;28;20176;-73
2021/04/22 17:11:38;;;;;;;1.23;0.43;;;13.10;56.30;;;;;;5061768;28;20084;-73
2021/04/22 17:14:06;;;;;;;0.50;0.30;;;13.00;56.30;;;;;;5063892;28;20051;-73
2021/04/22 17:16:35;;;;;;;1.48;0.43;;;12.80;56.40;;;;;;5096632;28;20039;-73
2021/04/22 17:19:02;;;;;;;2.40;0.60;;;12.80;56.80;;;;;;5115598;28;20050;-73
2021/04/22 17:21:29;;;;;;;1.13;0.40;;;12.80;56.50;;;;;;5095792;28;20389;-73
2021/04/22 17:23:55;;;;;;;2.22;0.50;;;12.70;56.40;;;;;;5115482;28;20065;-74
2021/04/22 17:26:23;;;;;;;0.70;0.40;;;12.60;56.70;;;;;;5080452;28;20044;-73
2021/04/22 17:28:50;;;;;;;0.63;0.38;;;12.40;56.70;;;;;;5080520;28;20050;-74
2021/04/22 17:31:18;;;;;;;0.40;0.30;;;12.30;56.90;;;;;;5097022;28;20438;-73
2021/04/22 17:33:45;;;;;;;1.13;0.40;;;12.20;57.80;;;;;;5115586;28;20067;-73
2021/04/22 17:36:11;;;;;;;1.98;0.40;;;12.10;57.30;;;;;;5115134;28;20050;-73
2021/04/22 17:38:38;;;;;;;1.95;0.47;;;12.00;57.50;;;;;;5080473;28;20039;-73
2021/04/22 17:41:06;;;;;;;0.68;0.32;;;11.80;57.60;;;;;;5114951;28;20044;-73
2021/04/22 17:43:34;;;;;;;0.45;0.45;;;11.70;57.90;;;;;;5115325;28;20485;-73
2021/04/22 17:46:01;;;;;;;0.80;0.35;;;11.60;58.00;;;;;;5095265;28;20036;-73
2021/04/22 17:48:28;;;;;;;1.10;0.50;;;11.50;58.10;;;;;;5096817;28;20046;-73
2021/04/22 17:50:55;;;;;;;0.52;0.30;;;11.40;58.20;;;;;;5096634;28;20043;-73
2021/04/22 17:53:25;;;;;;;0.68;0.30;;;11.30;58.30;;;;;;5079868;28;20484;-73
2021/04/22 17:55:51;;;;;;;1.48;0.40;;;11.30;58.40;;;;;;5114760;28;20051;-73
2021/04/22 17:58:17;;;;;;;2.42;0.30;;;11.10;58.40;;;;;;5097026;28;20047;-73
2021/04/22 18:00:43;;;;;;;0.30;0.30;;;11.00;58.60;;;;;;5094467;28;20063;-73
2021/04/22 18:03:11;;;;;;;0.77;0.35;;;10.80;58.70;;;;;;5096405;28;20101;-73
2021/04/22 18:05:38;;;;;;;0.57;0.40;;;10.80;58.90;;;;;;5115286;28;20047;-74
2021/04/22 18:08:08;;;;;;;0.20;0.20;;;10.70;58.90;;;;;;5095202;28;20040;-73
2021/04/22 18:10:35;;;;;;;0.30;0.30;;;10.60;59.10;;;;;;5114945;28;20040;-74
2021/04/22 18:13:02;;;;;;;0.35;0.35;;;10.60;59.20;;;;;;5096768;28;20039;-73
2021/04/22 18:15:29;;;;;;;1.60;0.60;;;10.40;59.30;;;;;;5096791;28;20043;-73
2021/04/22 18:17:58;;;;;;;0.73;0.35;;;10.30;59.40;;;;;;5115153;28;20568;-74
2021/04/22 18:20:26;;;;;;;0.50;0.30;;;10.20;59.50;;;;;;5115136;28;20507;-73
2021/04/22 18:22:53;;;;;;;0.90;0.43;;;10.20;59.70;;;;;;5096430;28;20043;-73
2021/04/22 18:25:22;;;;;;;0.70;0.40;;;10.10;59.70;;;;;;5114720;28;20114;-73
2021/04/22 18:27:49;;;;;;;0.95;0.40;;;10.00;59.80;;;;;;5094562;28;20127;-74
2021/04/22 18:30:20;;;;;;;0.35;0.35;;;9.90;59.90;;;;;;5095909;28;20406;-76
2021/04/22 18:32:47;;;;;;;1.38;0.30;;;9.90;60.00;;;;;;5114460;28;20529;-73
2021/04/22 18:35:14;;;;;;;2.00;0.38;;;9.80;60.00;;;;;;5114343;28;20063;-73
2021/04/22 18:37:41;;;;;;;2.80;0.65;;;9.80;60.10;;;;;;5096018;28;20051;-73
2021/04/22 18:40:11;;;;;;;0.90;0.52;;;9.70;60.10;;;;;;5096079;28;20495;-73
2021/04/22 18:42:37;;;;;;;0.85;0.30;;;9.70;60.20;;;;;;5114720;28;20484;-73
2021/04/22 18:45:06;;;;;;;0.90;0.40;;;9.50;60.20;;;;;;5114593;28;20042;-74
2021/04/22 18:47:32;;;;;;;2.65;0.50;;;9.50;60.40;;;;;;5114060;28;20503;-74
2021/04/22 18:49:59;;;;;;;0.52;0.30;;;9.50;60.50;;;;;;5114112;28;20042;-74
2021/04/22 18:52:25;;;;;;;0.40;0.30;;;9.50;60.60;;;;;;5114564;28;20084;-74
2021/04/22 18:54:51;;;;;;;0.20;0.20;;;9.30;60.70;;;;;;5114590;28;20050;-74
2021/04/22 18:57:20;;;;;;;0.85;0.40;;;9.30;60.80;;;;;;5113787;28;20040;-74
2021/04/22 18:59:49;;;;;;;1.00;0.40;;;9.20;60.90;;;;;;5113785;28;20488;-72
2021/04/22 19:02:15;;;;;;;0.60;0.40;;;9.10;61.00;;;;;;5114250;28;20050;-73
2021/04/22 19:04:41;;;;;;;0.98;0.38;;;9.00;61.00;;;;;;5094328;28;20101;-74
2021/04/22 19:07:07;;;;;;;0.30;0.30;;;9.00;61.20;;;;;;5113909;28;20516;-74
2021/04/22 19:09:33;;;;;;;0.20;0.20;;;9.00;61.30;;;;;;5095611;28;20093;-73
2021/04/22 19:12:00;;;;;;;0.57;0.40;;;8.90;61.30;;;;;;5113974;28;20035;-74
2021/04/22 19:14:27;;;;;;;0.28;0.28;;;8.80;61.30;;;;;;5113754;28;20032;-75
2021/04/22 19:16:53;;;;;;;0.95;0.30;;;8.80;61.50;;;;;;5076777;28;20078;-75
2021/04/22 19:19:19;;;;;;;0.30;0.30;;;8.70;61.50;;;;;;5095018;28;20170;-75
2021/04/22 19:21:46;;;;;;;0.20;0.20;;;8.70;62.30;;;;;;5113619;28;20043;-75
2021/04/22 19:24:13;;;;;;;0.38;0.30;;;8.60;61.70;;;;;;5077222;28;20032;-76
2021/04/22 19:26:39;;;;;;;2.13;0.35;;;8.60;61.90;;;;;;5113546;28;20039;-75
2021/04/22 19:29:06;;;;;;;0.30;0.30;;;8.50;61.90;;;;;;5113335;28;20097;-75
2021/04/22 19:31:34;;;;;;;0.30;0.30;;;8.40;62.00;;;;;;5095027;28;20122;-75
2021/04/22 19:34:00;;;;;;;0.30;0.30;;;8.40;62.10;;;;;;5113057;28;20039;-75
2021/04/22 19:36:26;;;;;;;0.25;0.20;;;8.30;62.10;;;;;;5095061;28;20423;-76
2021/04/22 19:38:54;;;;;;;0.30;0.30;;;8.30;62.20;;;;;;5113507;28;20396;-75
2021/04/22 19:41:21;;;;;;;1.10;0.30;;;8.20;62.20;;;;;;5095626;28;20048;-75
2021/04/22 19:43:48;;;;;;;0.52;0.40;;;8.20;62.30;;;;;;5094824;28;20471;-74
2021/04/22 19:46:14;;;;;;;0.43;0.32;;;8.20;62.40;;;;;;5078153;28;20043;-76
2021/04/22 19:48:41;;;;;;;1.48;0.30;;;8.10;62.50;;;;;;5113293;28;20388;-72
2021/04/22 19:51:10;;;;;;;0.45;0.30;;;8.10;62.50;;;;;;5113799;28;20044;-73
2021/04/22 19:53:38;;;;;;;0.20;0.20;;;8.00;62.50;;;;;;5094705;28;20142;-73
2021/04/22 19:56:06;;;;;;;0.93;0.30;;;8.00;62.70;;;;;;5094777;28;20520;-74
2021/04/22 19:58:33;;;;;;;0.22;0.22;;;7.90;62.80;;;;;;5093478;28;20570;-74
2021/04/22 20:01:01;;;;;;;0.15;0.10;;;7.80;62.80;;;;;;5093453;28;20131;-74
2021/04/22 20:03:29;;;;;;;0.75;0.30;;;7.80;62.90;;;;;;5095578;28;20066;-74
2021/04/22 20:06:00;;;;;;;0.10;0.10;;;7.80;63.00;;;;;;5094545;28;20044;-74
2021/04/22 20:08:27;;;;;;;0.70;0.30;;;7.80;63.10;;;;;;5094947;28;20477;-75
2021/04/22 20:10:55;;;;;;;0.20;0.20;;;7.70;63.10;;;;;;5112691;28;20397;-74
2021/04/22 20:13:22;;;;;;;0.13;0.13;;;7.70;63.20;;;;;;5112961;28;20040;-74
2021/04/22 20:15:49;;;;;;;0.32;0.20;;;7.70;63.30;;;;;;5076635;28;20131;-75
2021/04/22 20:18:26;;;;;;;0.40;0.20;;;7.60;63.40;;;;;;5113220;28;20130;-74
2021/04/22 20:20:53;;;;;;;0.20;0.20;;;7.60;63.50;;;;;;5093866;28;20089;-74
2021/04/22 20:23:20;;;;;;;0.68;0.25;;;7.50;63.40;;;;;;5112613;28;20046;-74
2021/04/22 20:25:47;;;;;;;0.10;0.10;;;7.60;63.60;;;;;;5077730;28;20481;-76
2021/04/22 20:28:13;;;;;;;0.55;0.22;;;7.50;63.50;;;;;;5094750;28;20043;-76
2021/04/22 20:30:40;;;;;;;0.22;0.22;;;7.50;63.60;;;;;;5093801;28;20047;-75
2021/04/22 20:33:07;;;;;;;0.30;0.30;;;7.40;63.60;;;;;;5112518;28;20501;-75
2021/04/22 20:35:35;;;;;;;0.10;0.10;;;7.40;63.70;;;;;;5075851;28;20063;-76
2021/04/22 20:38:07;;;;;;;0.30;0.30;;;7.40;63.80;;;;;;5094276;28;20035;-77
2021/04/22 20:40:34;;;;;;;1.95;0.30;;;7.40;63.90;;;;;;5094588;28;20052;-76
2021/04/22 20:43:01;;;;;;;0.20;0.20;;;7.30;63.90;;;;;;5076092;28;20048;-76
2021/04/22 20:45:27;;;;;;;0.30;0.20;;;7.30;64.00;;;;;;5112966;28;20048;-75
2021/04/22 20:47:54;;;;;;;0.47;0.20;;;7.30;64.10;;;;;;5096344;28;20047;-76
2021/04/22 20:50:22;;;;;;;1.00;0.30;;;7.30;64.10;;;;;;5064561;28;20123;-76
2021/04/22 20:52:51;;;;;;;0.43;0.38;;;7.20;64.10;;;;;;5095991;28;20153;-75
2021/04/22 20:55:19;;;;;;;0.75;0.40;;;7.20;64.20;;;;;;5097794;28;20040;-76
2021/04/22 20:57:45;;;;;;;0.20;0.20;;;7.20;64.30;;;;;;5097514;28;20039;-74
2021/04/22 21:00:13;;;;;;;0.32;0.30;;;7.00;64.20;;;;;;5097722;28;20122;-75
2021/04/22 21:02:40;;;;;;;0.20;0.17;;;7.20;64.40;;;;;;5098265;28;20031;-74
2021/04/22 21:05:08;;;;;;;0.35;0.20;;;7.00;64.40;;;;;;5097973;28;20366;-75
2021/04/22 21:07:34;;;;;;;0.20;0.20;;;6.90;64.50;;;;;;5115926;28;20034;-72
2021/04/22 21:10:00;;;;;;;0.30;0.25;;;6.90;64.60;;;;;;5115619;28;20036;-73
2021/04/22 21:12:26;;;;;;;0.10;0.10;;;6.90;64.70;;;;;;5115619;28;20032;-76
2021/04/22 21:14:53;;;;;;;0.20;0.20;;;6.90;64.80;;;;;;5115473;28;20066;-76
2021/04/22 21:17:18;;;;;;;0.10;0.10;;;6.90;64.80;;;;;;5097362;28;20125;-75
2021/04/22 21:19:45;;;;;;;1.17;0.30;;;6.80;64.70;;;;;;5097151;28;20043;-75
2021/04/22 21:22:11;;;;;;;0.38;0.28;;;6.80;64.80;;;;;;5115589;28;20383;-73
2021/04/22 21:24:37;;;;;;;0.38;0.28;;;6.70;64.80;;;;;;5115580;28;20042;-73
2021/04/22 21:27:07;;;;;;;0.20;0.20;;;6.80;64.90;;;;;;5096905;28;20044;-73
2021/04/22 21:29:39;;;;;;;0.50;0.35;;;6.70;65.00;;;;;;5116103;28;20492;-73
2021/04/22 21:32:09;;;;;;;0.20;0.20;;;6.70;65.10;;;;;;5097062;28;20044;-74
2021/04/22 21:34:37;;;;;;;0.38;0.20;;;6.70;65.10;;;;;;5115172;28;20395;-73
2021/04/22 21:37:08;;;;;;;0.85;0.20;;;6.70;65.20;;;;;;5097201;28;20122;-73
2021/04/22 21:39:35;;;;;;;0.57;0.32;;;6.60;65.30;;;;;;5115317;28;20043;-74
2021/04/22 21:42:03;;;;;;;0.10;0.10;;;6.50;65.30;;;;;;5115400;28;20378;-74
2021/04/22 21:44:30;;;;;;;0.80;0.22;;;6.50;65.50;;;;;;5097288;28;20035;-74
2021/04/22 21:46:56;;;;;;;0.30;0.22;;;6.40;65.50;;;;;;5115467;28;20078;-74
2021/04/22 21:49:23;;;;;;;0.32;0.28;;;6.40;65.60;;;;;;5115238;28;20111;-74
2021/04/22 21:51:49;;;;;;;0.38;0.38;;;6.40;65.60;;;;;;5115289;28;20097;-74
2021/04/22 21:54:15;;;;;;;0.70;0.20;;;6.40;65.70;;;;;;5096981;28;20050;-72
2021/04/22 21:56:43;;;;;;;0.93;0.30;;;6.30;65.70;;;;;;5094962;28;20035;-73
2021/04/22 21:59:10;;;;;;;0.17;0.17;;;6.30;65.80;;;;;;5096432;28;20047;-74
2021/04/22 22:01:38;;;;;;;0.20;0.15;;;6.30;65.80;;;;;;5096550;28;20127;-73
2021/04/22 22:04:05;;;;;;;0.28;0.20;;;6.20;65.90;;;;;;5115023;28;20040;-74
2021/04/22 22:06:35;;;;;;;0.15;0.15;;;6.20;66.00;;;;;;5114838;28;20043;-73
2021/04/22 22:09:06;;;;;;;0.20;0.20;;;6.20;66.00;;;;;;5096591;28;20059;-74
2021/04/22 22:11:32;;;;;;;0.47;0.22;;;6.10;66.20;;;;;;5114836;28;20059;-73
2021/04/22 22:13:58;;;;;;;0.20;0.20;;;6.10;66.20;;;;;;5114555;28;20111;-73
2021/04/22 22:16:25;;;;;;;0.13;0.10;;;6.00;66.30;;;;;;5096350;28;20101;-73
2021/04/22 22:18:51;;;;;;;0.55;0.22;;;6.00;66.30;;;;;;5114833;28;20483;-73
2021/04/22 22:21:19;;;;;;;0.57;0.20;;;6.00;66.40;;;;;;5078402;28;20040;-73
2021/04/22 22:23:47;;;;;;;0.25;0.20;;;5.90;66.50;;;;;;5096440;28;20489;-73
2021/04/22 22:26:14;;;;;;;0.20;0.20;;;5.90;66.50;;;;;;5094276;28;20048;-73
2021/04/22 22:28:40;;;;;;;0.20;0.20;;;5.80;66.60;;;;;;5079470;28;20502;-73
2021/04/22 22:31:07;;;;;;;0.20;0.20;;;5.80;66.70;;;;;;5095671;28;20127;-73
2021/04/22 22:33:37;;;;;;;0.20;0.20;;;5.80;66.70;;;;;;5079497;28;20044;-73
2021/04/22 22:36:05;;;;;;;0.75;0.20;;;5.80;66.80;;;;;;5096149;28;20484;-73
2021/04/22 22:38:34;;;;;;;0.20;0.20;;;5.70;66.90;;;;;;5114162;28;20511;-72
2021/04/22 22:41:02;;;;;;;0.13;0.13;;;5.70;67.00;;;;;;5095931;28;20054;-72
2021/04/22 22:43:28;;;;;;;0.10;0.10;;;5.60;67.00;;;;;;5114282;28;20066;-72
2021/04/22 22:45:55;;;;;;;0.43;0.30;;;5.60;67.10;;;;;;5095846;28;20039;-73
2021/04/22 22:48:21;;;;;;;0.40;0.20;;;5.60;67.10;;;;;;5114534;28;20071;-73
2021/04/22 22:50:47;;;;;;;0.32;0.20;;;5.60;67.20;;;;;;5094452;28;20093;-72
2021/04/22 22:53:14;;;;;;;0.30;0.20;;;5.60;67.20;;;;;;5096664;28;20036;-72
2021/04/22 22:55:40;;;;;;;0.55;0.20;;;5.50;67.30;;;;;;5114577;28;20047;-72
2021/04/22 22:58:08;;;;;;;0.47;0.30;;;5.50;67.40;;;;;;5095982;28;20179;-72
2021/04/22 23:00:42;;;;;;;0.13;0.13;;;5.40;67.40;;;;;;5114547;28;20505;-75
2021/04/22 23:03:08;;;;;;;0.20;0.20;;;5.30;67.40;;;;;;5114310;28;20032;-74
2021/04/22 23:05:35;;;;;;;0.63;0.22;;;5.30;67.60;;;;;;5113810;28;20039;-72
2021/04/22 23:08:02;;;;;;;0.20;0.20;;;5.30;67.70;;;;;;5095815;28;20035;-74
2021/04/22 23:10:28;;;;;;;0.38;0.20;;;5.30;67.80;;;;;;5078292;28;20044;-74
2021/04/22 23:12:55;;;;;;;0.13;0.13;;;5.20;67.80;;;;;;5095461;28;20135;-74
2021/04/22 23:15:24;;;;;;;1.08;0.35;;;5.20;67.90;;;;;;5114059;28;20044;-74
2021/04/22 23:17:50;;;;;;;1.27;0.20;;;5.20;67.90;;;;;;5095478;28;20039;-74
2021/04/22 23:20:19;;;;;;;0.93;0.30;;;5.10;67.90;;;;;;5095550;28;20105;-74
2021/04/22 23:22:45;;;;;;;0.40;0.25;;;5.10;68.00;;;;;;5113934;28;20122;-73
2021/04/22 23:25:14;;;;;;;0.10;0.10;;;5.10;68.10;;;;;;5095056;28;20047;-73
2021/04/22 23:27:40;;;;;;;0.93;0.30;;;5.00;68.20;;;;;;5113523;28;20119;-75
2021/04/22 23:30:11;;;;;;;0.30;0.30;;;5.00;68.20;;;;;;5093757;28;20151;-73
2021/04/22 23:32:38;;;;;;;0.30;0.30;;;5.00;68.30;;;;;;5093984;28;20131;-73
2021/04/22 23:35:07;;;;;;;0.30;0.30;;;5.00;68.30;;;;;;5113985;28;20047;-73
2021/04/22 23:37:34;;;;;;;0.17;0.17;;;4.90;68.40;;;;;;5076722;28;20051;-73
2021/04/22 23:40:00;;;;;;;0.32;0.20;;;4.90;68.40;;;;;;5113268;28;20074;-74
2021/04/22 23:42:26;;;;;;;0.57;0.30;;;4.90;68.50;;;;;;5113454;28;20173;-73
2021/04/22 23:44:53;;;;;;;0.47;0.43;;;4.90;68.60;;;;;;5113389;28;20553;-73
2021/04/22 23:47:19;;;;;;;0.30;0.30;;;4.80;68.60;;;;;;5113186;28;20043;-74
2021/04/22 23:49:45;;;;;;;0.20;0.20;;;4.80;69.40;;;;;;5112983;28;20450;-73
2021/04/22 23:52:13;;;;;;;0.57;0.30;;;4.70;68.70;;;;;;5112913;28;20039;-72
2021/04/22 23:54:40;;;;;;;0.30;0.30;;;4.70;68.80;;;;;;5076740;28;20028;-73
2021/04/22 23:57:06;;;;;;;0.60;0.28;;;4.70;68.90;;;;;;5094653;28;20385;-73
2021/04/22 23:59:34;;;;;;;0.80;0.30;;;4.60;68.90;;;;;;5112720;28;20035;-73
